createdAt,value
2017-12-08T00:01:12.503Z,91.10
2017-12-08T00:03:40.048Z,91.00
2017-12-08T00:06:07.621Z,90.80
2017-12-08T00:08:35.214Z,90.80
2017-12-08T00:11:04.855Z,91.40
2017-12-08T00:13:32.453Z,90.20
2017-12-08T00:16:00.009Z,90.50
2017-12-08T00:18:27.542Z,90.30
2017-12-08T00:20:55.140Z,90.30
2017-12-08T00:23:22.710Z,91.10
2017-12-08T00:25:50.301Z,90.90
2017-12-08T00:28:17.849Z,91.30
2017-12-08T00:30:45.408Z,90.70
2017-12-08T00:33:14.328Z,90.10
2017-12-08T00:35:41.889Z,90.70
2017-12-08T00:38:09.459Z,90.80
2017-12-08T00:40:37.798Z,90.90
2017-12-08T00:43:06.128Z,90.30
2017-12-08T00:45:34.703Z,90.30
2017-12-08T00:48:02.458Z,90.00
2017-12-08T00:50:30.011Z,88.30
2017-12-08T00:52:57.579Z,87.80
2017-12-08T00:55:25.131Z,85.40
2017-12-08T00:57:53.445Z,85.10
2017-12-08T01:00:21.014Z,85.10
2017-12-08T01:02:48.617Z,84.60
2017-12-08T01:05:16.190Z,84.40
2017-12-08T01:07:43.782Z,86.10
2017-12-08T01:10:11.321Z,86.60
2017-12-08T01:12:39.658Z,87.60
2017-12-08T01:15:07.251Z,87.50
2017-12-08T01:17:34.852Z,87.60
2017-12-08T01:20:02.716Z,87.70
2017-12-08T01:22:30.310Z,87.80
2017-12-08T01:24:57.900Z,88.00
2017-12-08T01:27:25.542Z,89.90
2017-12-08T01:29:53.138Z,90.40
2017-12-08T01:32:20.714Z,90.70
2017-12-08T01:34:48.283Z,91.10
2017-12-08T01:37:15.838Z,91.80
2017-12-08T01:39:43.456Z,92.10
2017-12-08T01:42:11.019Z,92.70
2017-12-08T01:44:38.578Z,93.40
2017-12-08T01:47:06.185Z,94.20
2017-12-08T01:49:33.796Z,95.40
2017-12-08T01:52:03.103Z,97.90
2017-12-08T01:54:31.454Z,99.50
2017-12-08T01:56:59.037Z,99.40
2017-12-08T01:59:26.606Z,99.90
2017-12-08T02:01:54.967Z,99.90
2017-12-08T02:04:22.818Z,99.90
2017-12-08T02:06:50.438Z,99.90
2017-12-08T02:09:18.827Z,99.90
2017-12-08T02:11:47.158Z,99.90
2017-12-08T02:14:14.716Z,99.90
2017-12-08T02:16:42.307Z,99.90
2017-12-08T02:19:09.914Z,99.90
2017-12-08T02:21:37.470Z,99.90
2017-12-08T02:24:05.276Z,99.90
2017-12-08T02:26:32.968Z,99.90
2017-12-08T02:29:01.331Z,99.90
2017-12-08T02:31:30.166Z,99.90
2017-12-08T02:33:58.521Z,99.90
2017-12-08T02:36:26.128Z,99.90
2017-12-08T02:38:54.453Z,99.90
2017-12-08T02:41:22.018Z,99.90
2017-12-08T02:43:49.605Z,99.90
2017-12-08T02:46:17.188Z,99.90
2017-12-08T02:48:45.541Z,99.90
2017-12-08T02:51:13.103Z,99.90
2017-12-08T02:53:40.708Z,99.90
2017-12-08T02:56:09.438Z,99.90
2017-12-08T02:58:37.021Z,99.90
2017-12-08T03:01:04.584Z,99.90
2017-12-08T03:03:32.142Z,99.90
2017-12-08T03:05:59.879Z,99.90
2017-12-08T03:08:27.497Z,99.90
2017-12-08T03:10:55.084Z,99.90
2017-12-08T03:13:23.427Z,99.90
2017-12-08T03:15:51.022Z,99.90
2017-12-08T03:18:18.588Z,99.90
2017-12-08T03:20:46.223Z,99.90
2017-12-08T03:23:13.790Z,99.90
2017-12-08T03:25:41.363Z,99.90
2017-12-08T03:28:08.988Z,99.90
2017-12-08T03:30:36.601Z,99.90
2017-12-08T03:33:04.153Z,99.90
2017-12-08T03:35:31.734Z,99.90
2017-12-08T03:37:59.290Z,99.90
2017-12-08T03:40:26.880Z,99.90
2017-12-08T03:42:54.521Z,99.90
2017-12-08T03:45:22.097Z,99.90
2017-12-08T03:47:49.953Z,99.90
2017-12-08T03:50:19.361Z,99.90
2017-12-08T03:52:46.900Z,99.90
2017-12-08T03:55:14.448Z,99.90
2017-12-08T03:57:42.060Z,99.90
2017-12-08T04:00:09.647Z,99.90
2017-12-08T04:02:37.208Z,99.90
2017-12-08T04:05:04.836Z,99.90
2017-12-08T04:07:32.398Z,99.90
2017-12-08T04:10:00.022Z,99.90
2017-12-08T04:12:27.878Z,99.90
2017-12-08T04:14:55.430Z,99.90
2017-12-08T04:17:25.578Z,99.90
2017-12-08T04:19:54.148Z,99.90
2017-12-08T04:22:22.187Z,99.90
2017-12-08T04:24:49.774Z,99.90
2017-12-08T04:27:17.355Z,99.90
2017-12-08T04:29:44.902Z,99.90
2017-12-08T04:32:13.767Z,99.90
2017-12-08T04:34:41.956Z,99.90
2017-12-08T04:37:09.536Z,99.90
2017-12-08T04:39:37.359Z,99.90
2017-12-08T04:42:04.980Z,99.90
2017-12-08T04:47:13.847Z,99.90
2017-12-08T04:49:41.421Z,99.90
2017-12-08T04:52:09.737Z,99.90
2017-12-08T04:54:37.340Z,99.90
2017-12-08T04:57:04.907Z,99.90
2017-12-08T04:59:32.534Z,99.90
2017-12-08T05:02:00.080Z,99.90
2017-12-08T05:04:27.637Z,99.90
2017-12-08T05:06:56.180Z,99.90
2017-12-08T05:09:24.563Z,99.90
2017-12-08T05:11:52.151Z,99.90
2017-12-08T05:14:20.511Z,99.90
2017-12-08T05:16:48.745Z,99.90
2017-12-08T05:19:16.342Z,99.90
2017-12-08T05:21:43.924Z,99.90
2017-12-08T05:24:11.502Z,99.90
2017-12-08T05:26:40.896Z,99.90
2017-12-08T05:29:16.332Z,99.90
2017-12-08T05:35:16.524Z,99.90
2017-12-08T05:37:52.455Z,99.90
2017-12-08T05:45:45.933Z,99.90
2017-12-08T05:48:41.156Z,99.90
2017-12-08T05:51:11.728Z,99.90
2017-12-08T05:54:02.466Z,99.90
2017-12-08T05:56:30.612Z,99.90
2017-12-08T05:58:58.814Z,99.90
2017-12-08T06:05:00.825Z,99.90
2017-12-08T06:07:37.918Z,99.90
2017-12-08T06:10:18.166Z,99.90
2017-12-08T06:12:50.288Z,99.90
2017-12-08T06:15:17.800Z,99.90
2017-12-08T06:17:46.133Z,99.90
2017-12-08T06:22:22.199Z,99.90
2017-12-08T06:24:50.536Z,99.90
2017-12-08T06:27:18.328Z,99.90
2017-12-08T06:29:45.916Z,99.90
2017-12-08T06:32:13.476Z,99.90
2017-12-08T06:34:41.145Z,99.90
2017-12-08T06:37:08.742Z,99.90
2017-12-08T06:39:36.304Z,99.90
2017-12-08T06:42:05.302Z,99.90
2017-12-08T06:44:33.644Z,99.90
2017-12-08T06:47:01.228Z,99.90
2017-12-08T06:49:28.798Z,99.90
2017-12-08T06:51:57.816Z,99.90
2017-12-08T06:54:26.120Z,99.90
2017-12-08T06:56:54.375Z,99.90
2017-12-08T06:59:21.942Z,99.90
2017-12-08T07:01:49.518Z,99.90
2017-12-08T07:04:17.154Z,99.90
2017-12-08T07:06:45.498Z,99.90
2017-12-08T07:09:13.084Z,99.90
2017-12-08T07:11:40.643Z,99.90
2017-12-08T07:14:08.256Z,99.90
2017-12-08T07:16:35.872Z,99.90
2017-12-08T07:19:03.442Z,99.90
2017-12-08T07:21:31.022Z,99.90
2017-12-08T07:23:59.621Z,99.90
2017-12-08T07:26:28.202Z,99.90
2017-12-08T07:28:56.695Z,99.90
2017-12-08T07:31:25.022Z,99.90
2017-12-08T07:33:53.502Z,99.90
2017-12-08T07:36:21.055Z,99.90
2017-12-08T07:38:49.456Z,99.90
2017-12-08T07:43:57.853Z,99.90
2017-12-08T07:53:18.409Z,99.90
2017-12-08T07:55:49.861Z,99.90
2017-12-08T07:58:17.628Z,99.90
2017-12-08T08:00:45.388Z,99.90
2017-12-08T08:03:13.764Z,99.90
2017-12-08T08:05:41.387Z,99.90
2017-12-08T08:08:09.957Z,99.90
2017-12-08T08:10:37.587Z,99.90
2017-12-08T08:13:05.274Z,99.90
2017-12-08T08:15:33.663Z,99.90
2017-12-08T08:18:02.518Z,99.90
2017-12-08T08:20:32.235Z,99.90
2017-12-08T08:23:00.656Z,99.90
2017-12-08T08:25:29.044Z,99.90
2017-12-08T08:27:57.452Z,99.90
2017-12-08T08:30:25.054Z,99.90
2017-12-08T08:32:52.791Z,99.90
2017-12-08T08:35:20.716Z,99.90
2017-12-08T08:37:48.622Z,99.90
2017-12-08T08:40:16.325Z,99.90
2017-12-08T08:42:44.041Z,99.90
2017-12-08T08:45:12.459Z,99.90
2017-12-08T08:47:40.148Z,99.90
2017-12-08T08:50:07.872Z,99.90
2017-12-08T08:52:39.318Z,99.90
2017-12-08T08:55:07.025Z,99.90
2017-12-08T08:57:34.825Z,99.90
2017-12-08T09:00:03.319Z,99.90
2017-12-08T09:02:31.065Z,99.90
2017-12-08T09:04:58.821Z,99.90
2017-12-08T09:07:26.542Z,99.90
2017-12-08T09:09:57.472Z,99.90
2017-12-08T09:12:26.974Z,99.90
2017-12-08T09:14:54.768Z,99.90
2017-12-08T09:17:23.167Z,99.90
2017-12-08T09:19:51.633Z,99.90
2017-12-08T09:22:19.204Z,99.90
2017-12-08T09:24:47.674Z,99.90
2017-12-08T09:27:26.651Z,99.90
2017-12-08T09:29:54.997Z,99.90
2017-12-08T09:32:22.801Z,99.90
2017-12-08T09:34:50.535Z,99.90
2017-12-08T09:37:18.860Z,99.90
2017-12-08T09:39:46.546Z,99.90
2017-12-08T09:42:14.283Z,99.90
2017-12-08T09:44:41.896Z,99.90
2017-12-08T09:47:09.494Z,99.90
2017-12-08T09:49:37.056Z,99.90
2017-12-08T09:52:04.667Z,99.90
2017-12-08T09:54:32.221Z,99.90
2017-12-08T09:56:59.811Z,99.90
2017-12-08T09:59:27.385Z,99.90
2017-12-08T10:01:55.024Z,99.90
2017-12-08T10:04:22.609Z,99.90
2017-12-08T10:06:50.195Z,99.90
2017-12-08T10:09:17.770Z,99.90
2017-12-08T10:11:46.183Z,99.90
2017-12-08T10:14:14.291Z,99.90
2017-12-08T10:16:42.655Z,99.90
2017-12-08T10:19:10.227Z,99.90
2017-12-08T10:21:37.822Z,99.90
2017-12-08T10:24:05.387Z,99.90
2017-12-08T10:26:32.947Z,99.90
2017-12-08T10:29:00.574Z,99.90
2017-12-08T10:31:29.157Z,99.90
2017-12-08T10:33:56.745Z,99.90
2017-12-08T10:36:24.320Z,99.90
2017-12-08T10:38:51.912Z,99.90
2017-12-08T10:41:19.537Z,99.90
2017-12-08T10:43:47.096Z,99.90
2017-12-08T10:46:14.699Z,99.90
2017-12-08T10:48:42.254Z,99.90
2017-12-08T10:51:09.809Z,99.90
2017-12-08T10:53:37.417Z,99.90
2017-12-08T10:56:05.735Z,99.90
2017-12-08T10:58:33.312Z,99.90
2017-12-08T11:01:00.915Z,99.90
2017-12-08T11:03:28.482Z,99.90
2017-12-08T11:05:56.046Z,99.90
2017-12-08T11:08:23.673Z,99.90
2017-12-08T11:10:51.283Z,99.90
2017-12-08T11:13:18.874Z,99.90
2017-12-08T11:15:46.532Z,99.90
2017-12-08T11:18:14.865Z,99.90
2017-12-08T11:20:42.786Z,99.90
2017-12-08T11:23:10.751Z,99.90
2017-12-08T11:25:39.153Z,99.90
2017-12-08T11:28:06.780Z,99.90
2017-12-08T11:30:34.386Z,99.90
2017-12-08T11:33:01.949Z,99.90
2017-12-08T11:35:29.575Z,99.90
2017-12-08T11:37:57.424Z,99.90
2017-12-08T11:40:24.957Z,99.90
2017-12-08T11:42:52.542Z,99.90
2017-12-08T11:45:20.106Z,99.90
2017-12-08T11:47:47.689Z,99.90
2017-12-08T11:50:15.270Z,99.90
2017-12-08T11:52:42.903Z,99.90
2017-12-08T11:55:10.431Z,99.90
2017-12-08T11:57:38.766Z,99.90
2017-12-08T12:00:06.340Z,99.90
2017-12-08T12:02:33.903Z,99.90
2017-12-08T12:05:01.463Z,99.90
2017-12-08T12:07:29.172Z,99.90
2017-12-08T12:09:57.595Z,99.90
2017-12-08T12:12:25.262Z,99.90
2017-12-08T12:14:52.853Z,99.90
2017-12-08T12:17:20.835Z,99.90
2017-12-08T12:19:48.424Z,99.90
2017-12-08T12:22:16.746Z,99.90
2017-12-08T12:24:44.324Z,99.90
2017-12-08T12:27:11.862Z,99.90
2017-12-08T12:29:39.423Z,99.90
2017-12-08T12:32:06.962Z,99.90
2017-12-08T12:34:34.526Z,99.90
2017-12-08T12:37:02.835Z,99.90
2017-12-08T12:39:30.420Z,99.90
2017-12-08T12:41:58.001Z,99.90
2017-12-08T12:44:25.596Z,99.90
2017-12-08T12:46:54.022Z,99.90
2017-12-08T12:49:21.585Z,99.90
2017-12-08T12:51:49.176Z,99.90
2017-12-08T12:54:16.740Z,99.90
2017-12-08T12:56:44.318Z,99.90
2017-12-08T12:59:11.900Z,99.90
2017-12-08T13:01:39.723Z,99.90
2017-12-08T13:04:07.309Z,99.90
2017-12-08T13:06:34.844Z,99.90
2017-12-08T13:09:02.431Z,99.90
2017-12-08T13:11:29.995Z,99.90
2017-12-08T13:13:57.745Z,99.90
2017-12-08T13:16:25.368Z,99.90
2017-12-08T13:18:53.745Z,99.90
2017-12-08T13:21:22.057Z,99.90
2017-12-08T13:23:49.625Z,99.90
2017-12-08T13:26:17.437Z,99.90
2017-12-08T13:28:45.068Z,99.90
2017-12-08T13:31:12.614Z,99.90
2017-12-08T13:33:40.155Z,99.90
2017-12-08T13:36:07.740Z,99.90
2017-12-08T13:38:35.299Z,99.90
2017-12-08T13:41:03.640Z,99.90
2017-12-08T13:43:31.192Z,99.90
2017-12-08T13:45:58.739Z,99.90
2017-12-08T13:48:26.312Z,99.90
2017-12-08T13:50:53.872Z,99.90
2017-12-08T13:53:33.128Z,99.90
2017-12-08T13:56:12.758Z,99.90
2017-12-08T13:58:40.316Z,99.90
2017-12-08T14:01:07.875Z,99.90
2017-12-08T14:03:35.508Z,99.90
2017-12-08T14:06:04.129Z,99.90
2017-12-08T14:08:31.986Z,99.90
2017-12-08T14:10:59.576Z,99.90
2017-12-08T14:13:27.226Z,99.90
2017-12-08T14:15:54.831Z,99.90
2017-12-08T14:18:23.235Z,99.90
2017-12-08T14:20:52.417Z,99.90
2017-12-08T14:23:20.031Z,99.90
2017-12-08T14:25:51.905Z,99.90
2017-12-08T14:28:19.896Z,99.90
2017-12-08T14:30:48.690Z,99.90
2017-12-08T14:33:17.316Z,99.90
2017-12-08T14:35:46.951Z,99.90
2017-12-08T14:38:16.565Z,99.90
2017-12-08T14:40:44.462Z,99.90
2017-12-08T14:43:12.477Z,99.90
2017-12-08T14:45:41.153Z,99.90
2017-12-08T14:48:08.934Z,99.90
2017-12-08T14:50:37.007Z,99.90
2017-12-08T14:53:04.663Z,99.90
2017-12-08T14:55:32.249Z,99.90
2017-12-08T14:57:59.863Z,99.90
2017-12-08T15:00:27.583Z,99.90
2017-12-08T15:02:55.201Z,99.90
2017-12-08T15:05:22.754Z,99.90
2017-12-08T15:07:50.346Z,99.90
2017-12-08T15:10:18.275Z,99.90
2017-12-08T15:12:45.884Z,99.90
2017-12-08T15:15:13.748Z,99.90
2017-12-08T15:17:41.499Z,99.90
2017-12-08T15:20:09.383Z,99.90
2017-12-08T15:22:37.731Z,99.90
2017-12-08T15:25:05.445Z,99.90
2017-12-08T15:27:33.214Z,99.90
2017-12-08T15:30:01.021Z,99.90
2017-12-08T15:32:28.919Z,99.90
2017-12-08T15:34:56.800Z,99.90
2017-12-08T15:37:24.376Z,99.90
2017-12-08T15:39:52.156Z,99.90
2017-12-08T15:42:19.749Z,99.90
2017-12-08T15:44:48.385Z,99.90
2017-12-08T15:47:20.050Z,99.90
2017-12-08T15:49:47.973Z,99.90
2017-12-08T15:52:15.790Z,99.90
2017-12-08T15:54:44.262Z,99.90
2017-12-08T15:57:11.984Z,99.90
2017-12-08T15:59:39.825Z,99.90
2017-12-08T16:02:07.408Z,99.90
2017-12-08T16:04:35.781Z,99.90
2017-12-08T16:07:04.510Z,99.90
2017-12-08T16:09:32.075Z,99.90
2017-12-08T16:11:59.663Z,99.90
2017-12-08T16:14:27.214Z,99.90
2017-12-08T16:16:54.901Z,99.90
2017-12-08T16:19:22.534Z,99.90
2017-12-08T16:21:50.104Z,99.90
2017-12-08T16:24:17.969Z,99.90
2017-12-08T16:26:45.535Z,99.90
2017-12-08T16:29:13.084Z,99.90
2017-12-08T16:31:40.861Z,99.90
2017-12-08T16:34:08.451Z,99.90
2017-12-08T16:36:36.081Z,99.90
2017-12-08T16:39:03.642Z,99.90
2017-12-08T16:41:31.469Z,99.90
2017-12-08T16:43:59.539Z,99.90
2017-12-08T16:46:27.121Z,99.90
2017-12-08T16:48:56.494Z,99.90
2017-12-08T16:51:24.082Z,99.90
2017-12-08T16:53:52.412Z,99.90
2017-12-08T16:56:20.010Z,99.90
2017-12-08T16:58:47.552Z,99.90
2017-12-08T17:01:15.116Z,99.90
2017-12-08T17:03:42.724Z,99.90
2017-12-08T17:06:11.132Z,99.90
2017-12-08T17:08:39.722Z,99.90
2017-12-08T17:11:07.297Z,99.90
2017-12-08T17:13:34.921Z,99.90
2017-12-08T17:16:02.490Z,99.90
2017-12-08T17:18:31.403Z,99.90
2017-12-08T17:21:00.221Z,99.90
2017-12-08T17:23:27.834Z,99.90
2017-12-08T17:25:55.376Z,99.90
2017-12-08T17:28:22.953Z,99.90
2017-12-08T17:30:50.592Z,99.90
2017-12-08T17:33:18.196Z,99.90
2017-12-08T17:35:45.785Z,99.90
2017-12-08T17:38:14.286Z,99.90
2017-12-08T17:40:41.872Z,99.90
2017-12-08T17:43:09.470Z,99.90
2017-12-08T17:45:37.060Z,99.90
2017-12-08T17:48:05.367Z,99.90
2017-12-08T17:50:33.133Z,99.90
2017-12-08T17:53:00.713Z,99.90
2017-12-08T17:55:28.280Z,99.90
2017-12-08T17:57:55.880Z,99.90
2017-12-08T18:00:23.445Z,99.90
2017-12-08T18:02:50.980Z,99.90
2017-12-08T18:05:18.561Z,99.90
2017-12-08T18:07:46.124Z,99.90
2017-12-08T18:10:14.784Z,99.90
2017-12-08T18:12:43.122Z,99.90
2017-12-08T18:15:10.676Z,99.90
2017-12-08T18:17:38.285Z,99.90
2017-12-08T18:20:06.658Z,99.90
2017-12-08T18:22:34.993Z,99.90
2017-12-08T18:25:02.568Z,99.90
2017-12-08T18:27:30.308Z,99.90
2017-12-08T18:29:57.860Z,99.90
2017-12-08T18:32:25.449Z,99.90
2017-12-08T18:34:53.085Z,99.90
2017-12-08T18:37:20.738Z,99.90
2017-12-08T18:39:49.204Z,99.90
2017-12-08T18:42:16.962Z,99.90
2017-12-08T18:44:44.540Z,99.90
2017-12-08T18:47:12.423Z,99.90
2017-12-08T18:49:40.138Z,99.90
2017-12-08T18:52:07.732Z,99.90
2017-12-08T18:54:35.327Z,99.90
2017-12-08T18:57:03.722Z,99.90
2017-12-08T18:59:31.571Z,99.90
2017-12-08T19:01:59.311Z,99.90
2017-12-08T19:04:26.877Z,99.90
2017-12-08T19:06:54.454Z,99.90
2017-12-08T19:09:22.451Z,99.90
2017-12-08T19:11:50.018Z,99.90
2017-12-08T19:14:17.594Z,99.90
2017-12-08T19:16:45.369Z,99.90
2017-12-08T19:19:13.234Z,99.90
2017-12-08T19:21:42.005Z,99.90
2017-12-08T19:24:10.932Z,99.90
2017-12-08T19:26:39.769Z,99.90
2017-12-08T19:29:08.363Z,99.90
2017-12-08T19:31:36.200Z,99.90
2017-12-08T19:34:04.110Z,99.90
2017-12-08T19:36:33.507Z,99.90
2017-12-08T19:39:02.408Z,99.90
2017-12-08T19:41:30.330Z,99.90
2017-12-08T19:43:58.203Z,99.90
2017-12-08T19:46:26.312Z,99.90
2017-12-08T19:48:54.207Z,99.90
2017-12-08T19:51:23.218Z,99.90
2017-12-08T19:53:51.149Z,99.90
2017-12-08T19:56:23.460Z,99.90
2017-12-08T19:58:52.764Z,99.90
2017-12-08T20:01:29.332Z,99.90
2017-12-08T20:03:57.629Z,99.90
2017-12-08T20:06:29.312Z,99.90
2017-12-08T20:09:00.213Z,99.90
2017-12-08T20:11:33.316Z,99.90
2017-12-08T20:14:03.856Z,99.90
2017-12-08T20:19:25.531Z,99.90
2017-12-08T20:21:54.587Z,99.90
2017-12-08T20:24:23.132Z,99.90
2017-12-08T20:26:53.767Z,99.90
2017-12-08T20:29:21.646Z,99.90
2017-12-08T20:31:49.668Z,99.90
2017-12-08T20:34:17.406Z,99.90
2017-12-08T20:36:46.571Z,99.90
2017-12-08T20:39:14.598Z,99.90
2017-12-08T20:41:42.484Z,99.90
2017-12-08T20:44:11.333Z,99.90
2017-12-08T20:46:42.229Z,99.90
2017-12-08T20:49:11.424Z,99.90
2017-12-08T20:51:39.611Z,99.90
2017-12-08T20:54:11.278Z,99.90
2017-12-08T20:56:59.287Z,99.90
2017-12-08T21:02:03.003Z,99.90
2017-12-08T21:04:30.870Z,99.90
2017-12-08T21:06:58.732Z,99.90
2017-12-08T21:09:28.734Z,99.90
2017-12-08T21:11:57.836Z,99.90
2017-12-08T21:14:25.878Z,99.90
2017-12-08T21:17:09.617Z,99.90
2017-12-08T21:19:48.140Z,99.90
2017-12-08T21:22:26.715Z,99.90
2017-12-08T21:24:56.317Z,99.90
2017-12-08T21:27:28.080Z,99.90
2017-12-08T21:29:56.945Z,99.90
2017-12-08T21:32:25.829Z,99.90
2017-12-08T21:34:54.616Z,99.90
2017-12-08T21:37:22.643Z,99.90
2017-12-08T21:39:50.505Z,99.90
2017-12-08T21:42:22.179Z,99.90
2017-12-08T21:44:52.723Z,99.90
2017-12-08T21:47:21.256Z,99.90
2017-12-08T21:49:53.206Z,99.90
2017-12-08T21:52:24.990Z,99.90
2017-12-08T21:54:53.589Z,99.90
2017-12-08T21:57:21.636Z,99.90
2017-12-08T21:59:53.854Z,99.90
2017-12-08T22:02:21.911Z,99.90
2017-12-08T22:04:49.947Z,99.90
2017-12-08T22:07:17.796Z,99.90
2017-12-08T22:09:46.034Z,99.90
2017-12-08T22:12:13.902Z,99.90
2017-12-08T22:14:41.939Z,99.90
2017-12-08T22:17:09.930Z,99.90
2017-12-08T22:19:37.708Z,99.90
2017-12-08T22:22:05.287Z,99.90
2017-12-08T22:24:33.004Z,99.90
2017-12-08T22:27:00.790Z,99.90
2017-12-08T22:29:31.796Z,99.90
2017-12-08T22:31:59.839Z,99.90
2017-12-08T22:34:28.508Z,99.90
2017-12-08T22:36:56.088Z,99.90
2017-12-08T22:39:24.092Z,99.90
2017-12-08T22:41:51.753Z,99.90
2017-12-08T22:44:20.144Z,99.90
2017-12-08T22:46:51.093Z,99.90
2017-12-08T22:49:18.963Z,99.90
2017-12-08T22:51:46.839Z,99.90
2017-12-08T22:54:14.899Z,99.90
2017-12-08T22:56:43.317Z,99.90
2017-12-08T22:59:11.138Z,99.90
2017-12-08T23:01:38.799Z,99.90
2017-12-08T23:04:06.455Z,99.90
2017-12-08T23:06:34.136Z,99.90
2017-12-08T23:09:02.626Z,99.90
2017-12-08T23:11:31.075Z,99.90
2017-12-08T23:13:59.688Z,99.90
2017-12-08T23:16:28.320Z,99.90
2017-12-08T23:18:56.061Z,99.90
2017-12-08T23:21:24.311Z,99.90
2017-12-08T23:23:51.942Z,99.90
2017-12-08T23:26:20.382Z,99.90
2017-12-08T23:28:48.456Z,99.90
2017-12-08T23:31:16.082Z,99.90
2017-12-08T23:33:43.722Z,99.90
2017-12-08T23:36:11.346Z,99.90
2017-12-08T23:38:39.014Z,99.90
2017-12-08T23:41:06.671Z,99.90
2017-12-08T23:43:34.289Z,99.90
2017-12-08T23:46:01.936Z,99.90
2017-12-08T23:48:30.318Z,99.90
2017-12-08T23:54:12.703Z,99.90
2017-12-08T23:56:40.324Z,99.90
2017-12-08T23:59:07.939Z,99.90
